FW8940 Weather Reports


Display with metric or nautical units.
time (UTC)temp
F
wind
direction
speed
MPH
gust
MPH
rain 1hr
in
rain 24hr
in
rain mn
in
humidity
%
barometer
mb
20230202203110 49 130 1.0 7.0 0.00 0.00 0.00 28 1024.9
20230202201559 50 245 1.0 5.0 0.00 0.00 0.00 27 1025.1
20230202200107 49 193 1.0 5.0 0.00 0.00 0.00 28 1025.4
20230202194616 49 110 2.0 8.0 0.00 0.00 0.00 27 1025.4
20230202193102 48 115 2.0 6.0 0.00 0.00 0.00 29 1025.8
20230202191600 47 99 1.0 8.0 0.00 0.00 0.00 28 1025.7
20230202190105 47 99 1.0 6.0 0.00 0.00 0.00 29 1025.6
20230202184608 46 269 0.0 8.0 0.00 0.00 0.00 33 1025.9
20230202183102 44 186 2.0 9.0 0.00 0.00 0.00 32 1025.9
20230202181603 43 143 1.0 6.0 0.00 0.00 0.00 34 1025.9
20230202180104 41 0 1.0 4.0 0.00 0.00 0.00 35 1026.0
20230202174605 41 0 1.0 5.0 0.00 0.00 0.00 36 1026.2
20230202173102 40 79 2.0 4.0 0.00 0.00 0.00 37 1026.5
20230202171601 39 149 1.0 6.0 0.00 0.00 0.00 38 1026.5
20230202170101 38 0 2.0 7.0 0.00 0.00 0.00 39 1026.1
20230202164603 38 181 2.0 4.0 0.00 0.00 0.00 38 1026.2
20230202163109 37 182 1.0 4.0 0.00 0.00 0.00 41 1026.1
20230202161604 36 231 1.0 6.0 0.00 0.00 0.00 42 1025.9
20230202160103 35 226 0.0 4.0 0.00 0.00 0.00 43 1025.9
20230202154601 34 174 0.0 3.0 0.00 0.00 0.00 43 1025.3
20230202153101 33 187 1.0 4.0 0.00 0.00 0.00 46 1025.3
20230202151605 30 0 0.0 2.0 0.00 0.00 0.00 51 1025.2
20230202150101 29 0 0.0 0.0 0.00 0.00 0.00 52 1025.1
20230202144601 28 268 1.0 5.0 0.00 0.00 0.00 54 1024.9
20230202143107 26 265 1.0 3.0 0.00 0.00 0.00 57 1024.7
20230202141559 25 282 0.0 2.0 0.00 0.00 0.00 59 1024.5
20230202140108 25 284 0.0 2.0 0.00 0.00 0.00 58 1024.4
20230202134600 26 0 0.0 2.0 0.00 0.00 0.00 57 1024.1
20230202133100 27 282 1.0 3.0 0.00 0.00 0.00 55 1024.1
20230202131600 29 0 1.0 3.0 0.00 0.00 0.00 50 1023.8
20230202130103 31 268 1.0 6.0 0.00 0.00 0.00 46 1023.5
20230202124601 32 283 2.0 7.0 0.00 0.00 0.00 45 1023.3
20230202123103 33 297 2.0 9.0 0.00 0.00 0.00 44 1023.0
20230202121601 34 309 2.0 8.0 0.00 0.00 0.00 43 1023.1
20230202120101 36 355 2.0 11.0 0.00 0.00 0.00 41 1022.7
20230202114605 36 270 4.0 12.0 0.00 0.00 0.00 39 1022.2
20230202113101 36 301 6.0 14.0 0.00 0.00 0.00 40 1022.0
20230202111603 36 279 7.0 14.0 0.00 0.00 0.00 39 1021.9
20230202110106 37 264 10.0 21.0 0.00 0.00 0.00 38 1021.8
20230202104603 36 270 8.0 18.0 0.00 0.00 0.00 40 1021.7
20230202103106 36 255 9.0 20.0 0.00 0.00 0.00 40 1021.3
20230202101601 36 259 8.0 19.0 0.00 0.00 0.00 39 1021.2
20230202100117 36 240 9.0 19.0 0.00 0.00 0.00 39 1021.2
20230202094601 36 294 6.0 21.0 0.00 0.00 0.00 38 1021.5
20230202093106 34 306 5.0 11.0 0.00 0.00 0.00 44 1021.2
20230202091607 31 228 1.0 7.0 0.00 0.00 0.00 47 1021.2
20230202090105 33 344 1.0 11.0 0.00 0.00 0.00 45 1020.9
20230202084601 32 255 3.0 8.0 0.00 0.00 0.00 46 1020.7
20230202083058 29 240 0.0 5.0 0.00 0.00 0.00 51 1020.8
20230202081603 27 290 0.0 3.0 0.00 0.00 0.00 54 1020.7
20230202080103 27 292 1.0 4.0 0.00 0.00 0.00 55 1020.4
20230202074605 26 253 0.0 2.0 0.00 0.00 0.00 57 1020.5
20230202073107 26 0 0.0 2.0 0.00 0.00 0.00 57 1020.4
20230202071601 27 0 0.0 2.0 0.00 0.00 0.00 56 1020.3
20230202070135 28 0 1.0 4.0 0.00 0.00 0.00 53 1020.1
20230202064602 31 0 0.0 2.0 0.00 0.00 0.00 47 1020.0
20230202063106 34 85 1.0 9.0 0.00 0.00 0.00 43 1019.9
20230202061603 33 230 4.0 9.0 0.00 0.00 0.00 42 1019.9
20230202060120 33 292 2.0 7.0 0.00 0.00 0.00 43 1019.9
20230202054559 32 274 5.0 10.0 0.00 0.00 0.00 45 1020.0
20230202053110 31 261 3.0 7.0 0.00 0.00 0.00 47 1019.8
20230202051601 32 257 0.0 7.0 0.00 0.00 0.00 44 1019.8
20230202050106 33 268 1.0 6.0 0.00 0.00 0.00 44 1019.8
20230202044600 34 245 3.0 10.0 0.00 0.00 0.00 41 1019.6
20230202043101 34 263 4.0 12.0 0.00 0.00 0.00 41 1019.5
20230202041559 29 260 2.0 4.0 0.00 0.00 0.00 49 1019.4
20230202040110 30 0 0.0 4.0 0.00 0.00 0.00 49 1019.5
20230202034603 32 0 0.0 3.0 0.00 0.00 0.00 46 1019.4
20230202033101 34 257 0.0 6.0 0.00 0.00 0.00 42 1019.3
20230202031604 34 286 3.0 8.0 0.00 0.00 0.00 42 1019.3
20230202030132 33 253 1.0 7.0 0.00 0.00 0.00 43 1019.2
20230202024602 30 270 0.0 4.0 0.00 0.00 0.00 50 1019.1
20230202023102 29 219 1.0 5.0 0.00 0.00 0.00 52 1019.1
20230202021600 29 259 2.0 8.0 0.00 0.00 0.00 54 1019.4
20230202020105 28 245 0.0 3.0 0.00 0.00 0.00 55 1019.4
20230202014559 28 0 0.0 2.0 0.00 0.00 0.00 55 1019.3
20230202013105 29 222 1.0 2.0 0.00 0.00 0.00 54 1019.2
20230202011600 30 0 0.0 2.0 0.00 0.00 0.00 53 1019.2
20230202010101 31 0 0.0 2.0 0.00 0.00 0.00 54 1019.0
20230202004612 33 263 1.0 3.0 0.00 0.00 0.00 50 1019.0
20230202003116 34 263 2.0 5.0 0.00 0.00 0.00 48 1019.1
20230202001602 34 278 2.0 4.0 0.00 0.00 0.00 47 1018.8
20230202000103 33 228 0.0 2.0 0.00 0.00 0.00 47 1018.5
20230201234604 36 90 1.0 2.0 0.00 0.00 0.00 45 1018.2
20230201233104 38 0 0.0 1.0 0.00 0.00 0.00 41 1018.1
20230201231601 40 0 0.0 2.0 0.00 0.00 0.00 37 1018.0
20230201230102 41 0 1.0 4.0 0.00 0.00 0.00 34 1017.8
20230201224601 42 0 1.0 5.0 0.00 0.00 0.00 34 1017.8
20230201223108 43 107 0.0 3.0 0.00 0.00 0.00 34 1017.8
20230201221611 44 0 1.0 3.0 0.00 0.00 0.00 33 1017.7
20230201220105 45 85 1.0 5.0 0.00 0.00 0.00 32 1017.5
20230201214601 48 95 1.0 3.0 0.00 0.00 0.00 27 1017.4
20230201213103 50 51 0.0 3.0 0.00 0.00 0.00 26 1017.3
20230201211616 50 12 1.0 3.0 0.00 0.00 0.00 26 1017.2
20230201210107 50 21 0.0 4.0 0.00 0.00 0.00 25 1017.0
20230201204605 50 90 2.0 6.0 0.00 0.00 0.00 25 1017.0